createdAt,value
2019-03-21T00:00:54.737Z,41.15
2019-03-21T00:01:55.207Z,41.16
2019-03-21T00:02:55.682Z,41.14
2019-03-21T00:03:56.149Z,41.14
2019-03-21T00:04:56.625Z,41.11
2019-03-21T00:05:57.092Z,41.12
2019-03-21T00:06:57.564Z,41.15
2019-03-21T00:07:58.035Z,41.16
2019-03-21T00:08:58.504Z,41.11
2019-03-21T00:09:58.976Z,41.11
2019-03-21T00:10:59.502Z,41.09
2019-03-21T00:11:59.924Z,41.12
2019-03-21T00:13:00.393Z,41.10
2019-03-21T00:14:06.920Z,41.07
2019-03-21T00:15:01.335Z,41.08
2019-03-21T00:16:01.804Z,41.05
2019-03-21T00:17:02.277Z,41.02
2019-03-21T00:18:02.751Z,41.08
2019-03-21T00:19:03.221Z,41.05
2019-03-21T00:20:03.694Z,41.08
2019-03-21T00:21:04.163Z,41.06
2019-03-21T00:22:04.640Z,41.07
2019-03-21T00:23:05.106Z,41.08
2019-03-21T00:24:05.578Z,41.06
2019-03-21T00:25:06.047Z,41.09
2019-03-21T00:26:06.519Z,41.04
2019-03-21T00:27:06.991Z,41.03
2019-03-21T00:28:07.462Z,41.05
2019-03-21T00:29:07.936Z,41.02
2019-03-21T00:30:08.405Z,41.06
2019-03-21T00:31:08.876Z,41.05
2019-03-21T00:32:09.550Z,41.06
2019-03-21T00:33:09.818Z,41.04
2019-03-21T00:34:10.289Z,41.07
2019-03-21T00:35:10.764Z,41.10
2019-03-21T00:36:11.234Z,41.04
2019-03-21T00:37:11.710Z,41.07
2019-03-21T00:38:12.176Z,41.02
2019-03-21T00:39:12.650Z,41.05
2019-03-21T00:40:13.120Z,41.05
2019-03-21T00:41:13.589Z,41.03
2019-03-21T00:42:14.062Z,41.02
2019-03-21T00:43:14.534Z,41.03
2019-03-21T00:44:18.457Z,41.02
2019-03-21T00:45:15.475Z,41.03
2019-03-21T00:46:15.948Z,41.03
2019-03-21T00:47:16.418Z,41.03
2019-03-21T00:48:16.892Z,41.04
2019-03-21T00:49:17.361Z,41.07
2019-03-21T00:50:17.832Z,41.05
2019-03-21T00:51:18.304Z,41.07
2019-03-21T00:52:18.774Z,41.09
2019-03-21T00:53:19.247Z,41.05
2019-03-21T00:54:19.718Z,41.04
2019-03-21T00:55:20.192Z,41.07
2019-03-21T00:56:20.660Z,41.02
2019-03-21T00:57:21.134Z,41.04
2019-03-21T00:58:21.606Z,41.06
2019-03-21T00:59:22.077Z,41.04
2019-03-21T01:00:22.546Z,41.05
2019-03-21T01:01:23.018Z,41.08
2019-03-21T01:02:23.488Z,41.08
2019-03-21T01:03:23.962Z,41.04
2019-03-21T01:04:24.435Z,41.04
2019-03-21T01:05:24.903Z,41.05
2019-03-21T01:06:25.425Z,41.07
2019-03-21T01:07:25.850Z,41.04
2019-03-21T01:08:26.318Z,41.03
2019-03-21T01:09:26.789Z,41.06
2019-03-21T01:10:27.265Z,41.05
2019-03-21T01:11:27.783Z,41.05
2019-03-21T01:12:28.204Z,41.05
2019-03-21T01:13:28.675Z,41.05
2019-03-21T01:14:30.101Z,41.07
2019-03-21T01:15:29.622Z,41.05
2019-03-21T01:16:30.137Z,41.03
2019-03-21T01:17:30.563Z,41.03
2019-03-21T01:18:31.032Z,41.07
2019-03-21T01:19:33.232Z,41.04
2019-03-21T01:20:31.975Z,41.06
2019-03-21T01:21:32.449Z,41.06
2019-03-21T01:22:32.917Z,41.06
2019-03-21T01:23:33.391Z,41.04
2019-03-21T01:24:33.861Z,41.03
2019-03-21T01:25:34.331Z,41.00
2019-03-21T01:26:35.008Z,40.99
2019-03-21T01:27:35.277Z,41.04
2019-03-21T01:28:35.749Z,41.07
2019-03-21T01:29:36.219Z,41.06
2019-03-21T01:30:36.689Z,41.08
2019-03-21T01:31:37.166Z,41.09
2019-03-21T01:32:37.631Z,41.07
2019-03-21T01:33:38.105Z,41.05
2019-03-21T01:34:38.578Z,41.07
2019-03-21T01:35:39.046Z,41.02
2019-03-21T01:36:39.555Z,41.07
2019-03-21T01:37:39.990Z,41.05
2019-03-21T01:38:40.459Z,41.07
2019-03-21T01:39:40.934Z,41.07
2019-03-21T01:40:41.401Z,41.05
2019-03-21T01:41:41.874Z,41.04
2019-03-21T01:42:42.345Z,41.04
2019-03-21T01:43:42.818Z,41.05
2019-03-21T01:44:43.287Z,41.04
2019-03-21T01:45:43.759Z,41.07
2019-03-21T01:46:44.231Z,41.04
2019-03-21T01:47:44.706Z,41.06
2019-03-21T01:48:45.173Z,41.10
2019-03-21T01:49:45.646Z,41.05
2019-03-21T01:50:46.121Z,41.05
2019-03-21T01:51:46.930Z,41.02
2019-03-21T01:52:47.058Z,41.07
2019-03-21T01:53:47.531Z,41.04
2019-03-21T01:54:48.003Z,41.02
2019-03-21T01:55:48.473Z,41.04
2019-03-21T01:56:48.995Z,41.03
2019-03-21T01:57:49.419Z,41.01
2019-03-21T01:58:49.890Z,41.02
2019-03-21T01:59:50.359Z,41.01
2019-03-21T02:00:50.832Z,41.04
2019-03-21T02:01:51.301Z,41.00
2019-03-21T02:02:51.773Z,40.99
2019-03-21T02:03:52.251Z,41.02
2019-03-21T02:04:52.918Z,41.05
2019-03-21T02:05:53.187Z,41.00
2019-03-21T02:06:53.660Z,41.01
2019-03-21T02:07:54.131Z,41.01
2019-03-21T02:08:54.602Z,41.02
2019-03-21T02:09:55.075Z,40.95
2019-03-21T02:10:55.545Z,41.00
2019-03-21T02:11:56.017Z,41.00
2019-03-21T02:12:56.489Z,41.00
2019-03-21T02:13:56.960Z,41.00
2019-03-21T02:14:57.431Z,41.00
2019-03-21T02:15:59.328Z,40.99
2019-03-21T02:16:58.423Z,41.04
2019-03-21T02:17:58.845Z,41.02
2019-03-21T02:18:59.317Z,41.01
2019-03-21T02:19:59.787Z,41.02
2019-03-21T02:21:00.261Z,41.00
2019-03-21T02:22:00.730Z,41.01
2019-03-21T02:23:01.203Z,41.01
2019-03-21T02:24:01.674Z,41.04
2019-03-21T02:25:02.154Z,41.04
2019-03-21T02:27:03.088Z,41.05
2019-03-21T02:28:03.560Z,41.02
2019-03-21T02:29:04.031Z,41.03
2019-03-21T02:30:04.502Z,41.01
2019-03-21T02:31:04.973Z,41.03
2019-03-21T02:32:05.445Z,41.01
2019-03-21T02:33:05.917Z,41.02
2019-03-21T02:34:06.400Z,41.00
2019-03-21T02:35:06.878Z,41.00
2019-03-21T02:36:07.332Z,40.99
2019-03-21T02:37:07.801Z,41.01
2019-03-21T02:38:08.313Z,41.00
2019-03-21T02:39:08.750Z,40.97
2019-03-21T02:40:09.216Z,40.98
2019-03-21T02:41:09.690Z,40.99
2019-03-21T02:42:10.159Z,41.00
2019-03-21T02:43:10.632Z,40.96
2019-03-21T02:44:11.109Z,40.99
2019-03-21T02:45:11.606Z,41.01
2019-03-21T02:46:12.051Z,41.01
2019-03-21T02:47:12.521Z,41.00
2019-03-21T02:48:12.988Z,40.98
2019-03-21T02:49:13.464Z,41.00
2019-03-21T02:50:13.932Z,40.97
2019-03-21T02:51:14.404Z,40.99
2019-03-21T02:52:14.923Z,41.01
2019-03-21T02:53:15.346Z,41.00
2019-03-21T02:54:15.816Z,41.06
2019-03-21T02:55:16.288Z,41.06
2019-03-21T02:56:16.767Z,41.04
2019-03-21T02:57:17.231Z,41.03
2019-03-21T02:58:17.704Z,41.03
2019-03-21T02:59:18.174Z,40.99
2019-03-21T03:00:18.648Z,41.00
2019-03-21T03:01:19.123Z,41.01
2019-03-21T03:02:19.589Z,41.03
2019-03-21T03:03:20.061Z,40.99
2019-03-21T03:04:20.537Z,40.98
2019-03-21T03:05:21.004Z,41.00
2019-03-21T03:06:21.483Z,40.98
2019-03-21T03:07:21.948Z,41.00
2019-03-21T03:08:22.428Z,41.01
2019-03-21T03:09:22.893Z,41.00
2019-03-21T03:10:23.360Z,40.98
2019-03-21T03:11:23.873Z,41.03
2019-03-21T03:13:24.775Z,41.02
2019-03-21T03:14:25.271Z,40.97
2019-03-21T03:15:25.719Z,40.97
2019-03-21T03:16:26.197Z,41.04
2019-03-21T03:17:26.660Z,41.00
2019-03-21T03:18:27.136Z,41.02
2019-03-21T03:19:27.710Z,41.02
2019-03-21T03:20:28.078Z,41.00
2019-03-21T03:21:28.548Z,41.03
2019-03-21T03:22:29.020Z,40.98
2019-03-21T03:23:29.561Z,41.01
2019-03-21T03:24:29.963Z,41.02
2019-03-21T03:25:30.503Z,41.03
2019-03-21T03:26:30.905Z,41.00
2019-03-21T03:27:31.770Z,41.01
2019-03-21T03:28:31.887Z,41.01
2019-03-21T03:29:32.320Z,40.97
2019-03-21T03:30:32.791Z,41.01
2019-03-21T03:31:33.277Z,41.00
2019-03-21T03:32:33.736Z,40.99
2019-03-21T03:33:34.245Z,41.04
2019-03-21T03:34:34.682Z,41.05
2019-03-21T03:35:35.149Z,41.00
2019-03-21T03:36:35.622Z,41.01
2019-03-21T03:37:36.091Z,41.06
2019-03-21T03:38:36.563Z,41.01
2019-03-21T03:39:37.239Z,40.99
2019-03-21T03:40:37.510Z,40.99
2019-03-21T03:41:37.979Z,40.98
2019-03-21T03:42:38.449Z,41.01
2019-03-21T03:43:38.920Z,41.00
2019-03-21T03:44:39.395Z,41.02
2019-03-21T03:45:39.865Z,40.99
2019-03-21T03:46:40.333Z,41.00
2019-03-21T03:47:40.817Z,41.01
2019-03-21T03:48:41.283Z,40.95
2019-03-21T03:49:41.749Z,40.95
2019-03-21T03:50:42.222Z,40.97
2019-03-21T03:51:42.703Z,40.96
2019-03-21T03:52:43.164Z,41.00
2019-03-21T03:53:43.636Z,40.98
2019-03-21T03:54:44.105Z,40.99
2019-03-21T03:55:44.918Z,40.96
2019-03-21T03:56:45.053Z,41.00
2019-03-21T03:57:45.524Z,40.96
2019-03-21T03:58:45.996Z,40.94
2019-03-21T03:59:46.463Z,40.94
2019-03-21T04:00:46.935Z,40.94
2019-03-21T04:01:47.408Z,40.94
2019-03-21T04:02:48.217Z,40.97
2019-03-21T04:03:48.349Z,40.96
2019-03-21T04:04:48.822Z,40.94
2019-03-21T04:05:49.330Z,40.94
2019-03-21T04:06:49.766Z,40.95
2019-03-21T04:07:50.576Z,40.93
2019-03-21T04:08:50.717Z,40.93
2019-03-21T04:09:51.181Z,40.96
2019-03-21T04:10:51.652Z,40.96
2019-03-21T04:11:52.122Z,40.95
2019-03-21T04:12:52.596Z,40.94
2019-03-21T04:13:53.061Z,40.93
2019-03-21T04:14:53.535Z,40.95
2019-03-21T04:15:54.372Z,40.94
2019-03-21T04:16:54.482Z,40.97
2019-03-21T04:17:54.947Z,41.00
2019-03-21T04:18:55.419Z,41.01
2019-03-21T04:19:55.900Z,40.99
2019-03-21T04:20:56.365Z,40.97
2019-03-21T04:21:56.834Z,40.97
2019-03-21T04:22:57.401Z,40.98
2019-03-21T04:23:59.742Z,41.01
2019-03-21T04:24:58.590Z,40.99
2019-03-21T04:25:59.062Z,40.98
2019-03-21T04:26:59.191Z,40.97
2019-03-21T04:27:59.664Z,40.93
2019-03-21T04:29:00.135Z,40.98
2019-03-21T04:30:00.642Z,41.02
2019-03-21T04:31:01.285Z,40.99
2019-03-21T04:32:01.892Z,41.02
2019-03-21T04:33:02.024Z,40.99
2019-03-21T04:34:02.502Z,40.96
2019-03-21T04:35:02.962Z,41.00
2019-03-21T04:36:03.778Z,41.00
2019-03-21T04:37:03.906Z,41.00
2019-03-21T04:38:04.375Z,41.01
2019-03-21T04:39:04.848Z,41.02
2019-03-21T04:40:05.320Z,41.03
2019-03-21T04:41:05.792Z,41.04
2019-03-21T04:42:06.260Z,41.06
2019-03-21T04:43:06.731Z,41.03
2019-03-21T04:44:07.212Z,41.02
2019-03-21T04:45:07.677Z,40.99
2019-03-21T04:46:08.146Z,40.95
2019-03-21T04:47:08.618Z,40.98
2019-03-21T04:48:09.089Z,40.98
2019-03-21T04:49:09.561Z,41.00
2019-03-21T04:50:10.034Z,40.97
2019-03-21T04:51:10.503Z,40.99
2019-03-21T04:52:10.974Z,40.99
2019-03-21T04:53:11.450Z,41.00
2019-03-21T04:54:11.915Z,40.96
2019-03-21T04:55:12.393Z,40.95
2019-03-21T04:56:12.858Z,40.95
2019-03-21T04:57:13.334Z,40.96
2019-03-21T04:58:14.398Z,40.98
2019-03-21T04:59:14.272Z,40.95
2019-03-21T05:00:14.746Z,40.99
2019-03-21T05:01:15.217Z,40.98
2019-03-21T05:02:15.722Z,41.00
2019-03-21T05:03:16.158Z,40.98
2019-03-21T05:04:16.668Z,40.98
2019-03-21T05:05:17.303Z,40.96
2019-03-21T05:06:17.572Z,40.99
2019-03-21T05:07:18.042Z,40.97
2019-03-21T05:08:18.553Z,40.96
2019-03-21T05:09:19.188Z,40.98
2019-03-21T05:10:19.457Z,40.97
2019-03-21T05:11:19.929Z,40.96
2019-03-21T05:12:20.398Z,40.99
2019-03-21T05:13:20.869Z,40.91
2019-03-21T05:14:21.340Z,40.93
2019-03-21T05:15:21.812Z,40.94
2019-03-21T05:16:22.623Z,40.94
2019-03-21T05:17:22.754Z,40.95
2019-03-21T05:18:23.919Z,40.92
2019-03-21T05:19:23.697Z,40.95
2019-03-21T05:20:24.169Z,40.94
2019-03-21T05:21:24.980Z,40.95
2019-03-21T05:22:25.148Z,40.93
2019-03-21T05:23:25.581Z,40.94
2019-03-21T05:24:26.064Z,40.90
2019-03-21T05:25:26.527Z,40.93
2019-03-21T05:26:27.012Z,40.90
2019-03-21T05:27:27.477Z,40.91
2019-03-21T05:28:28.279Z,40.89
2019-03-21T05:29:28.411Z,40.93
2019-03-21T05:30:28.918Z,40.94
2019-03-21T05:31:29.352Z,40.92
2019-03-21T05:32:29.824Z,40.88
2019-03-21T05:33:30.292Z,40.91
2019-03-21T05:34:30.966Z,40.87
2019-03-21T05:35:31.240Z,40.88
2019-03-21T05:36:31.709Z,40.85
2019-03-21T05:37:32.215Z,40.85
2019-03-21T05:38:32.993Z,40.87
2019-03-21T05:40:33.634Z,40.87
2019-03-21T05:41:34.265Z,40.89
2019-03-21T05:42:34.534Z,40.91
2019-03-21T05:43:35.009Z,40.86
2019-03-21T05:44:35.479Z,40.91
2019-03-21T05:45:35.998Z,40.90
2019-03-21T05:46:36.420Z,40.88
2019-03-21T05:47:37.233Z,40.91
2019-03-21T05:48:37.567Z,40.88
2019-03-21T05:49:37.835Z,40.88
2019-03-21T05:50:38.303Z,40.91
2019-03-21T05:51:39.117Z,40.87
2019-03-21T05:52:39.286Z,40.86
2019-03-21T05:53:39.724Z,40.92
2019-03-21T05:54:40.227Z,40.92
2019-03-21T05:55:40.666Z,40.92
2019-03-21T05:56:41.335Z,40.92
2019-03-21T05:57:41.604Z,40.93
2019-03-21T05:58:42.074Z,40.97
2019-03-21T05:59:42.553Z,40.95
2019-03-21T06:00:43.017Z,40.93
2019-03-21T06:01:43.491Z,40.90
2019-03-21T06:02:43.961Z,40.92
2019-03-21T06:03:44.429Z,40.90
2019-03-21T06:04:44.906Z,40.89
2019-03-21T06:05:45.384Z,40.87
2019-03-21T06:06:45.844Z,40.91
2019-03-21T06:07:46.320Z,40.89
2019-03-21T06:08:47.179Z,40.87
2019-03-21T06:09:47.261Z,40.86
2019-03-21T06:10:47.731Z,40.85
2019-03-21T06:12:49.015Z,40.86
2019-03-21T06:13:49.687Z,40.88
2019-03-21T06:15:50.088Z,40.83
2019-03-21T06:16:50.563Z,40.81
2019-03-21T06:17:51.031Z,40.83
2019-03-21T06:18:51.499Z,40.83
2019-03-21T06:19:51.974Z,40.81
2019-03-21T06:20:52.443Z,40.83
2019-03-21T06:21:52.922Z,40.85
2019-03-21T06:22:53.798Z,40.86
2019-03-21T06:23:53.862Z,40.89
2019-03-21T06:24:54.670Z,40.80
2019-03-21T06:25:54.801Z,40.85
2019-03-21T06:26:55.273Z,40.84
2019-03-21T06:28:56.215Z,40.84
2019-03-21T06:29:57.230Z,40.86
2019-03-21T06:31:58.203Z,40.85
2019-03-21T06:32:58.099Z,40.87
2019-03-21T06:33:58.725Z,40.90
2019-03-21T06:34:59.047Z,40.87
2019-03-21T06:35:59.716Z,40.86
2019-03-21T06:37:00.026Z,40.87
2019-03-21T06:38:00.495Z,40.83
2019-03-21T06:39:00.929Z,40.85
2019-03-21T06:40:01.399Z,40.84
2019-03-21T06:41:02.212Z,40.80
2019-03-21T06:42:02.549Z,40.82
2019-03-21T06:43:02.884Z,40.83
2019-03-21T06:44:03.283Z,40.79
2019-03-21T06:45:04.097Z,40.83
2019-03-21T06:46:04.227Z,40.79
2019-03-21T06:47:05.648Z,40.78
2019-03-21T06:48:05.172Z,40.77
2019-03-21T06:49:05.642Z,40.83
2019-03-21T06:50:06.114Z,40.83
2019-03-21T06:51:06.785Z,40.76
2019-03-21T06:52:07.597Z,40.75
2019-03-21T06:53:08.724Z,40.78
2019-03-21T06:54:07.998Z,40.81
2019-03-21T06:55:08.811Z,40.77
2019-03-21T06:58:10.084Z,40.77
2019-03-21T06:59:10.557Z,40.77
2019-03-21T07:00:11.168Z,40.72
2019-03-21T07:02:12.109Z,40.72
2019-03-21T07:03:12.239Z,40.71
2019-03-21T07:05:13.722Z,40.70
2019-03-21T07:06:13.993Z,40.71
2019-03-21T07:07:14.734Z,40.69
2019-03-21T07:08:15.139Z,40.69
2019-03-21T07:10:16.737Z,40.72
2019-03-21T07:11:16.350Z,40.70
2019-03-21T07:12:16.485Z,40.70
2019-03-21T07:13:16.954Z,40.68
2019-03-21T07:14:20.658Z,40.72
2019-03-21T07:15:18.097Z,40.70
2019-03-21T07:16:18.708Z,40.71
2019-03-21T07:17:19.381Z,40.68
2019-03-21T07:18:21.253Z,40.67
2019-03-21T07:19:19.781Z,40.67
2019-03-21T07:20:20.593Z,40.71
2019-03-21T07:21:21.062Z,40.68
2019-03-21T07:24:22.191Z,40.65
2019-03-21T07:26:23.286Z,40.67
2019-03-21T07:30:25.168Z,40.66
2019-03-21T07:31:25.438Z,40.65
2019-03-21T07:32:33.334Z,40.63
2019-03-21T07:33:26.380Z,40.64
2019-03-21T07:34:27.416Z,40.61
2019-03-21T07:36:28.053Z,40.61
2019-03-21T07:37:28.471Z,40.64
2019-03-21T07:38:29.279Z,40.65
2019-03-21T07:39:29.554Z,40.63
2019-03-21T07:40:30.894Z,40.61
2019-03-21T07:41:30.759Z,40.63
2019-03-21T07:43:31.093Z,40.60
2019-03-21T07:45:32.446Z,40.56
2019-03-21T07:47:33.184Z,40.52
2019-03-21T07:48:33.864Z,40.55
2019-03-21T07:49:35.544Z,40.56
2019-03-21T07:53:36.253Z,40.53
2019-03-21T07:54:36.888Z,40.52
2019-03-21T07:59:39.858Z,40.53
2019-03-21T08:00:40.933Z,40.56
2019-03-21T08:01:40.392Z,40.59
2019-03-21T08:02:40.396Z,40.56
2019-03-21T08:05:42.480Z,40.61
2019-03-21T08:06:43.244Z,40.61
2019-03-21T08:10:47.674Z,40.61
2019-03-21T08:12:45.425Z,40.62
2019-03-21T08:14:47.476Z,40.62
2019-03-21T08:15:48.125Z,40.66
2019-03-21T08:18:48.424Z,40.65
2019-03-21T08:19:48.331Z,40.64
2019-03-21T08:23:51.236Z,40.69
2019-03-21T08:27:53.741Z,40.67
2019-03-21T08:28:53.824Z,40.66
2019-03-21T08:32:01.097Z,40.64
2019-03-21T08:32:54.792Z,40.62
2019-03-21T08:33:55.398Z,40.64
2019-03-21T08:38:57.873Z,40.67
2019-03-21T08:47:02.590Z,40.59
2019-03-21T08:48:02.030Z,40.56
2019-03-21T08:49:02.245Z,40.56
2019-03-21T08:57:08.590Z,40.47
2019-03-21T09:04:15.121Z,40.44
2019-03-21T09:32:04.734Z,40.44
2019-03-21T09:33:11.486Z,40.46
2019-03-21T09:34:05.500Z,40.44
2019-03-21T09:36:06.969Z,40.46
2019-03-21T09:39:08.678Z,40.50
2019-03-21T09:40:13.096Z,40.49
2019-03-21T09:58:18.030Z,40.60
2019-03-21T10:01:20.474Z,40.63
2019-03-21T10:24:18.961Z,40.64
2019-03-21T10:33:54.275Z,40.66
2019-03-21T10:36:52.650Z,40.70
2019-03-21T10:40:52.729Z,40.67
2019-03-21T10:41:51.510Z,40.67
2019-03-21T10:42:57.563Z,40.62
2019-03-21T10:48:55.357Z,40.70
2019-03-21T10:54:57.758Z,40.67
2019-03-21T11:20:27.935Z,40.71
2019-03-21T17:26:37.206Z,40.66
2019-03-21T17:28:34.033Z,40.67
2019-03-21T17:31:38.738Z,40.68
2019-03-21T17:33:10.283Z,40.69
2019-03-21T17:37:55.629Z,40.75
2019-03-21T17:51:36.494Z,40.85
2019-03-21T17:53:19.027Z,40.83
2019-03-21T18:16:05.745Z,40.99
2019-03-21T18:24:58.114Z,40.92
2019-03-21T18:26:03.494Z,40.97
2019-03-21T19:03:40.938Z,41.79
2019-03-21T19:13:22.405Z,42.67
2019-03-21T19:29:25.674Z,42.43
2019-03-21T19:31:10.918Z,42.21
2019-03-21T19:50:18.464Z,41.01
2019-03-21T21:26:22.752Z,42.27
